createdAt,value
2018-09-14T00:07:20.681Z,1001.50
2018-09-14T00:17:21.990Z,1001.52
2018-09-14T00:27:20.730Z,1001.37
2018-09-14T00:37:20.679Z,1001.32
2018-09-14T00:47:20.637Z,1001.26
2018-09-14T00:57:20.692Z,1001.27
2018-09-14T01:07:20.664Z,1001.36
2018-09-14T01:17:21.399Z,1001.28
2018-09-14T01:27:20.675Z,1001.33
2018-09-14T01:37:20.662Z,1001.22
2018-09-14T01:47:20.656Z,1001.17
2018-09-14T01:57:20.570Z,1001.14
2018-09-14T02:07:20.675Z,1001.17
2018-09-14T02:17:20.607Z,1001.08
2018-09-14T02:27:20.740Z,1000.94
2018-09-14T02:37:20.788Z,1000.89
2018-09-14T02:47:20.676Z,1000.89
2018-09-14T02:57:20.590Z,1000.87
2018-09-14T03:07:20.638Z,1000.86
2018-09-14T03:17:20.701Z,1000.78
2018-09-14T03:27:20.596Z,1000.78
2018-09-14T03:37:20.738Z,1000.81
2018-09-14T03:47:20.586Z,1000.78
2018-09-14T03:57:20.687Z,1000.74
2018-09-14T04:07:20.636Z,1000.80
2018-09-14T04:17:20.676Z,1000.73
2018-09-14T04:27:20.712Z,1000.72
2018-09-14T04:37:20.764Z,1000.78
2018-09-14T04:47:20.646Z,1000.82
2018-09-14T04:57:20.984Z,1000.90
2018-09-14T05:07:20.603Z,1000.93
2018-09-14T05:17:20.743Z,1000.85
2018-09-14T05:27:20.768Z,1000.87
2018-09-14T05:37:20.683Z,1000.84
2018-09-14T05:47:20.773Z,1000.97
2018-09-14T05:57:20.572Z,1001.08
2018-09-14T06:07:20.631Z,1001.08
2018-09-14T06:17:20.919Z,1001.09
2018-09-14T06:27:20.723Z,1001.12
2018-09-14T06:37:20.793Z,1001.11
2018-09-14T06:47:20.643Z,1001.23
2018-09-14T06:57:20.649Z,1001.05
2018-09-14T07:07:20.691Z,1001.15
2018-09-14T07:17:20.620Z,1001.11
2018-09-14T07:27:20.831Z,1001.17
2018-09-14T07:37:20.640Z,1001.12
2018-09-14T07:47:22.329Z,1001.28
2018-09-14T07:57:20.716Z,1001.28
2018-09-14T08:07:21.361Z,1001.37
2018-09-14T08:17:20.679Z,1001.28
2018-09-14T08:27:20.645Z,1001.39
2018-09-14T08:37:21.708Z,1001.40
2018-09-14T08:47:21.428Z,1001.52
2018-09-14T08:57:20.560Z,1001.51
2018-09-14T09:07:20.853Z,1001.55
2018-09-14T09:17:20.659Z,1001.57
2018-09-14T09:27:24.425Z,1001.50
2018-09-14T09:37:20.729Z,1001.49
2018-09-14T09:47:20.724Z,1001.48
2018-09-14T09:57:20.691Z,1001.48
2018-09-14T10:07:21.659Z,1001.45
2018-09-14T10:17:20.671Z,1001.32
2018-09-14T10:27:20.745Z,1001.29
2018-09-14T10:37:20.675Z,1001.30
2018-09-14T10:47:21.436Z,1001.12
2018-09-14T10:57:20.716Z,1001.07
2018-09-14T11:07:20.818Z,1001.04
2018-09-14T11:17:20.706Z,1000.97
2018-09-14T11:27:20.688Z,1000.93
2018-09-14T11:37:20.743Z,1000.84
2018-09-14T11:47:20.723Z,1000.70
2018-09-14T11:57:20.706Z,1000.67
2018-09-14T12:07:20.790Z,1000.56
2018-09-14T12:17:20.737Z,1000.59
2018-09-14T12:27:20.613Z,1000.46
2018-09-14T12:37:20.673Z,1000.35
2018-09-14T12:47:20.762Z,1000.36
2018-09-14T12:57:20.795Z,1000.32
2018-09-14T13:07:20.716Z,1000.33
2018-09-14T13:17:20.992Z,1000.17
2018-09-14T13:27:22.050Z,1000.03
2018-09-14T13:37:27.995Z,1000.16
2018-09-14T13:47:20.788Z,1000.02
2018-09-14T13:57:20.783Z,999.96
2018-09-14T14:07:21.588Z,999.95
2018-09-14T14:17:20.880Z,999.94
2018-09-14T14:27:20.796Z,1000.00
2018-09-14T14:37:20.805Z,999.83
2018-09-14T14:47:20.871Z,999.96
2018-09-14T14:57:20.771Z,999.91
2018-09-14T15:07:20.771Z,999.93
2018-09-14T15:17:20.814Z,999.84
2018-09-14T15:27:21.806Z,999.88
2018-09-14T15:37:21.153Z,999.92
2018-09-14T15:47:20.794Z,999.93
2018-09-14T15:57:20.765Z,1000.01
2018-09-14T16:07:20.836Z,1000.02
2018-09-14T16:17:20.846Z,999.94
2018-09-14T16:27:20.994Z,999.94
2018-09-14T16:37:20.847Z,999.98
2018-09-14T16:47:20.726Z,999.91
2018-09-14T16:57:20.874Z,999.95
2018-09-14T17:07:20.739Z,999.92
2018-09-14T17:17:20.802Z,999.95
2018-09-14T17:27:20.879Z,1000.04
2018-09-14T17:37:20.755Z,1000.02
2018-09-14T17:47:20.885Z,1000.05
2018-09-14T17:57:21.021Z,999.99
2018-09-14T18:07:20.812Z,999.97
2018-09-14T18:17:20.836Z,1000.17
2018-09-14T18:27:20.830Z,1000.23
2018-09-14T18:37:20.763Z,1000.36
2018-09-14T18:47:20.786Z,1000.42
2018-09-14T18:57:20.816Z,1000.52
2018-09-14T19:07:20.778Z,1000.65
2018-09-14T19:17:20.831Z,1000.60
2018-09-14T19:27:20.783Z,1000.71
2018-09-14T19:37:20.861Z,1000.73
2018-09-14T19:47:23.383Z,1000.72
2018-09-14T19:57:20.846Z,1000.75
2018-09-14T20:07:20.925Z,1000.88
2018-09-14T20:17:20.930Z,1000.87
2018-09-14T20:27:20.877Z,1000.93
2018-09-14T20:37:20.874Z,1001.01
2018-09-14T20:47:20.850Z,1001.09
2018-09-14T20:57:20.797Z,1001.17
2018-09-14T21:07:20.864Z,1001.06
2018-09-14T21:17:20.844Z,1001.19
2018-09-14T21:27:20.862Z,1001.23
2018-09-14T21:37:20.974Z,1001.35
2018-09-14T21:47:20.925Z,1001.45
2018-09-14T21:57:20.771Z,1001.60
2018-09-14T22:07:21.059Z,1001.60
2018-09-14T22:17:20.822Z,1001.55
2018-09-14T22:27:20.812Z,1001.51
2018-09-14T22:37:20.824Z,1001.58
2018-09-14T22:47:20.811Z,1001.49
2018-09-14T22:57:20.784Z,1001.49
2018-09-14T23:07:21.115Z,1001.66
2018-09-14T23:17:20.824Z,1001.72
2018-09-14T23:27:20.917Z,1001.77
2018-09-14T23:37:20.870Z,1001.84
2018-09-14T23:47:20.898Z,1001.85
2018-09-14T23:57:20.908Z,1001.86
